Time;durP1;ratioP1;P1;durP2;ratioP2;P2;SDS_P1;SDS_P2;PMS_P1;PMS_P2;Temp;Humidity;BMP_temperature;BMP_pressure;BME280_temperature;BME280_humidity;BME280_pressure;Samples;Min_cycle;Max_cycle;Signal;HPM_P1;HPM_P2
2024/02/10 00:02:06;;;;;;;6.75;3.28;;;;;;;11.79;80.39;97698.25;10305353;28;20059;-86
2024/02/10 00:07:09;;;;;;;5.00;2.92;;;;;;;11.78;80.30;97687.72;10282044;28;20054;-86
2024/02/10 00:12:11;;;;;;;5.68;3.17;;;;;;;11.83;80.58;97690.50;10299232;28;20160;-88
2024/02/10 00:17:15;;;;;;;6.25;3.58;;;;;;;11.85;80.57;97674.91;10324762;28;20054;-87
2024/02/10 00:22:17;;;;;;;5.57;3.60;;;;;;;11.89;80.26;97681.44;10314995;28;20379;-86
2024/02/10 00:27:19;;;;;;;8.10;4.88;;;;;;;11.90;80.39;97677.66;10297302;28;20054;-87
2024/02/10 00:32:21;;;;;;;10.55;5.50;;;;;;;11.96;80.31;97683.94;10288645;28;20063;-87
2024/02/10 00:37:22;;;;;;;9.30;4.68;;;;;;;12.01;80.18;97673.25;10291234;28;20066;-85
2024/02/10 00:42:27;;;;;;;10.38;4.95;;;;;;;11.91;80.49;97676.63;10287777;28;20457;-87
2024/02/10 00:47:29;;;;;;;6.25;3.70;;;;;;;11.97;80.56;97680.19;10290056;28;20046;-87
2024/02/10 00:52:31;;;;;;;6.05;3.47;;;;;;;11.96;80.70;97678.56;10289452;28;20046;-87
2024/02/10 00:57:32;;;;;;;4.25;1.98;;;;;;;12.05;80.06;97675.16;10290092;28;20063;-87
2024/02/10 01:02:34;;;;;;;4.43;2.13;;;;;;;12.00;80.51;97667.03;10305874;28;20050;-87
2024/02/10 01:07:35;;;;;;;2.60;1.02;;;;;;;12.05;80.60;97666.28;10282861;28;20094;-87
2024/02/10 01:12:37;;;;;;;3.05;1.35;;;;;;;12.09;79.72;97668.22;10287809;28;20074;-87
2024/02/10 01:17:41;;;;;;;3.33;1.08;;;;;;;12.17;80.17;97663.44;10288622;28;20494;-85
2024/02/10 01:22:45;;;;;;;2.75;1.13;;;;;;;12.29;79.66;97666.81;10288564;28;20051;-87
2024/02/10 01:27:47;;;;;;;3.33;1.50;;;;;;;12.40;79.34;97671.25;10290302;28;20055;-85
2024/02/10 01:32:48;;;;;;;3.00;1.33;;;;;;;12.44;79.07;97666.13;10289178;28;20047;-83
2024/02/10 01:37:50;;;;;;;5.40;1.10;;;;;;;12.33;79.41;97669.81;10302289;28;20062;-83
2024/02/10 01:42:53;;;;;;;4.15;0.93;;;;;;;12.39;79.51;97671.50;10289305;28;20058;-83
2024/02/10 01:47:55;;;;;;;2.40;1.48;;;;;;;12.44;79.40;97666.13;10348470;28;20034;-84
2024/02/10 01:52:56;;;;;;;2.80;0.88;;;;;;;12.42;79.14;97660.19;10354280;28;20038;-86
2024/02/10 01:58:04;;;;;;;3.22;1.25;;;;;;;12.38;79.52;97661.75;10346301;28;20053;-85
2024/02/10 02:03:06;;;;;;;4.43;1.23;;;;;;;12.34;79.53;97658.75;10375236;28;20046;-85
2024/02/10 02:08:08;;;;;;;2.45;1.08;;;;;;;12.38;79.47;97651.81;10391922;28;20054;-85
2024/02/10 02:13:11;;;;;;;1.75;1.23;;;;;;;12.37;79.21;97655.56;10374242;28;20062;-85
2024/02/10 02:18:14;;;;;;;4.75;1.65;;;;;;;12.34;79.08;97650.69;10348805;28;20057;-83
2024/02/10 02:23:19;;;;;;;2.33;0.88;;;;;;;12.35;79.12;97646.13;10317706;28;20343;-83
2024/02/10 02:28:24;;;;;;;4.03;0.98;;;;;;;12.37;78.98;97644.00;10318591;28;20046;-83
2024/02/10 02:33:26;;;;;;;6.55;0.80;;;;;;;12.35;78.97;97643.44;10317123;28;20521;-83
2024/02/10 02:38:27;;;;;;;2.40;0.70;;;;;;;12.31;78.97;97637.75;10308896;28;20050;-83
2024/02/10 02:43:35;;;;;;;1.67;0.98;;;;;;;12.37;78.87;97630.53;10330304;28;20050;-86
2024/02/10 02:48:39;;;;;;;2.88;1.10;;;;;;;12.38;78.89;97629.44;10304855;28;20054;-86
2024/02/10 02:53:44;;;;;;;2.58;0.90;;;;;;;12.39;78.71;97629.19;10298279;28;20129;-86
2024/02/10 02:58:51;;;;;;;4.10;1.48;;;;;;;12.39;78.46;97625.69;10311778;28;20046;-86
2024/02/10 03:03:53;;;;;;;2.03;1.02;;;;;;;12.30;78.86;97615.38;10351448;28;20042;-86
2024/02/10 03:08:54;;;;;;;1.73;0.63;;;;;;;12.30;79.18;97610.00;10367945;28;20041;-86
2024/02/10 03:13:59;;;;;;;4.20;1.25;;;;;;;12.20;79.06;97611.75;10388338;28;20065;-86
2024/02/10 03:19:04;;;;;;;2.17;0.85;;;;;;;12.18;79.00;97614.69;10331465;28;20058;-87
2024/02/10 03:24:06;;;;;;;2.13;1.02;;;;;;;12.15;78.93;97611.72;10332350;28;20046;-82
2024/02/10 03:29:09;;;;;;;1.08;0.63;;;;;;;12.21;79.09;97610.72;10339350;28;20054;-82
2024/02/10 03:34:11;;;;;;;1.77;0.93;;;;;;;12.25;79.06;97611.81;10344744;28;20082;-82
2024/02/10 03:39:13;;;;;;;2.15;0.68;;;;;;;12.25;78.86;97612.63;10313064;28;20061;-82
2024/02/10 03:44:15;;;;;;;2.20;0.80;;;;;;;12.30;78.63;97614.53;10325224;28;20050;-81
2024/02/10 03:49:20;;;;;;;2.85;0.90;;;;;;;12.35;78.93;97606.53;10324238;28;20058;-82
2024/02/10 03:54:23;;;;;;;2.90;0.90;;;;;;;12.36;78.61;97596.56;10356683;28;20142;-87
2024/02/10 03:59:26;;;;;;;1.98;0.80;;;;;;;12.36;78.83;97608.16;10382257;28;20046;-87
2024/02/10 04:04:30;;;;;;;2.00;1.10;;;;;;;12.39;78.86;97596.06;10367730;28;20050;-87
2024/02/10 04:09:32;;;;;;;1.35;0.70;;;;;;;12.40;78.65;97603.06;10366326;28;20042;-86
2024/02/10 04:14:34;;;;;;;3.40;0.90;;;;;;;12.40;78.66;97597.66;10342837;28;20128;-86
2024/02/10 04:19:36;;;;;;;4.32;0.52;;;;;;;12.37;78.48;97592.81;10338904;28;20075;-86
2024/02/10 04:24:40;;;;;;;0.80;0.50;;;;;;;12.37;78.56;97596.31;10318180;28;20064;-86
2024/02/10 04:29:42;;;;;;;1.88;0.70;;;;;;;12.36;78.89;97593.88;10311326;28;20054;-86
2024/02/10 04:34:45;;;;;;;1.00;0.63;;;;;;;12.34;79.03;97593.31;10334210;28;20081;-86
2024/02/10 04:39:49;;;;;;;1.70;0.75;;;;;;;12.37;78.51;97593.63;10336642;28;21057;-86
2024/02/10 04:44:51;;;;;;;3.45;0.90;;;;;;;12.38;79.07;97589.03;10319726;28;20042;-86
2024/02/10 04:49:56;;;;;;;3.92;1.02;;;;;;;12.41;78.53;97592.03;10313216;28;20116;-87
2024/02/10 04:54:58;;;;;;;2.70;0.80;;;;;;;12.42;78.39;97585.59;10334004;28;20101;-87
2024/02/10 05:00:06;;;;;;;4.35;1.00;;;;;;;12.36;78.68;97592.00;10332652;28;20054;-86
2024/02/10 05:05:10;;;;;;;1.25;0.60;;;;;;;12.23;79.13;97581.63;10315428;28;20051;-87
2024/02/10 05:10:18;;;;;;;2.05;1.10;;;;;;;12.23;79.26;97587.84;10377346;28;20081;-85
2024/02/10 05:15:22;;;;;;;2.72;0.90;;;;;;;12.28;78.96;97582.50;10355611;28;20642;-87
2024/02/10 05:20:26;;;;;;;1.85;1.02;;;;;;;12.30;78.69;97590.31;10321343;28;20369;-87
2024/02/10 05:25:35;;;;;;;2.63;0.93;;;;;;;12.27;78.63;97598.91;10318773;28;20129;-88
2024/02/10 05:30:38;;;;;;;1.90;1.08;;;;;;;12.25;78.97;97604.56;10316499;28;20050;-88
2024/02/10 05:35:39;;;;;;;3.15;0.90;;;;;;;12.27;78.99;97593.53;10337491;28;20119;-88
2024/02/10 05:40:41;;;;;;;2.75;0.95;;;;;;;12.32;78.85;97592.75;10323322;28;20141;-88
2024/02/10 05:45:43;;;;;;;2.80;1.20;;;;;;;12.35;78.46;97592.25;10305096;28;20050;-88
2024/02/10 05:50:46;;;;;;;4.18;1.65;;;;;;;12.33;78.39;97592.50;10342153;28;20046;-87
2024/02/10 05:55:48;;;;;;;3.17;1.30;;;;;;;12.09;79.22;97579.34;10386252;28;20026;-87
2024/02/10 06:00:51;;;;;;;2.17;1.20;;;;;;;12.04;79.19;97591.94;10386228;28;20042;-87
2024/02/10 06:05:53;;;;;;;7.03;2.33;;;;;;;12.08;78.84;97596.59;10390113;28;20034;-87
2024/02/10 06:10:56;;;;;;;3.33;1.52;;;;;;;12.14;78.37;97605.50;10373797;28;20034;-86
2024/02/10 06:15:59;;;;;;;3.55;1.98;;;;;;;12.13;78.84;97603.91;10349844;28;20072;-88
2024/02/10 06:21:00;;;;;;;5.15;2.10;;;;;;;12.15;78.63;97617.13;10354959;28;20555;-88
2024/02/10 06:26:02;;;;;;;4.95;2.28;;;;;;;12.14;78.44;97623.56;10332767;28;20043;-88
2024/02/10 06:31:04;;;;;;;5.30;2.53;;;;;;;12.16;78.27;97618.72;10346134;28;20054;-88
2024/02/10 06:36:05;;;;;;;6.57;2.50;;;;;;;12.18;78.21;97633.56;10308529;28;20126;-87
2024/02/10 06:41:08;;;;;;;4.18;1.92;;;;;;;12.16;78.88;97640.25;10333772;28;20053;-88
2024/02/10 06:46:13;;;;;;;3.58;2.08;;;;;;;12.20;78.17;97636.00;10341743;28;20054;-90
2024/02/10 06:51:18;;;;;;;4.80;2.72;;;;;;;12.24;77.91;97632.56;10350651;28;20050;-90
2024/02/10 06:56:20;;;;;;;4.40;3.15;;;;;;;12.26;78.34;97633.13;10356702;28;20110;-90
2024/02/10 07:01:22;;;;;;;4.43;2.60;;;;;;;12.22;78.39;97628.47;10350611;28;20054;-89
2024/02/10 07:06:28;;;;;;;7.22;2.60;;;;;;;12.14;78.03;97624.34;10353013;28;20045;-90
2024/02/10 07:11:32;;;;;;;8.75;2.70;;;;;;;12.03;78.19;97636.91;10355669;28;20023;-91
2024/02/10 07:16:33;;;;;;;4.97;2.53;;;;;;;11.92;78.26;97624.41;10360900;23;20044;-70
2024/02/10 07:21:35;;;;;;;5.85;2.58;;;;;;;11.84;78.04;97630.19;10306910;28;20055;-66
2024/02/10 07:26:37;;;;;;;5.47;3.08;;;;;;;11.78;78.46;97644.66;10301537;28;20047;-66
2024/02/10 07:31:39;;;;;;;7.30;3.65;;;;;;;11.73;78.17;97650.81;10302063;28;20051;-67
2024/02/10 07:36:41;;;;;;;8.63;3.95;;;;;;;11.73;78.25;97666.94;10306130;28;20054;-66
2024/02/10 07:41:43;;;;;;;9.23;4.18;;;;;;;11.80;78.21;97662.19;10292235;28;20126;-66
2024/02/10 07:46:45;;;;;;;11.68;3.97;;;;;;;11.82;78.41;97665.44;10266721;28;20055;-66
2024/02/10 07:51:47;;;;;;;7.13;4.05;;;;;;;11.83;78.25;97663.56;10287288;28;20375;-66
2024/02/10 07:56:49;;;;;;;9.07;4.63;;;;;;;11.85;78.46;97661.44;10263236;28;20057;-66
2024/02/10 08:01:51;;;;;;;6.05;3.85;;;;;;;11.88;78.38;97664.41;10261200;28;20422;-66
2024/02/10 08:06:54;;;;;;;5.43;3.97;;;;;;;11.92;78.73;97670.16;10235261;28;20051;-67
2024/02/10 08:11:56;;;;;;;8.38;4.43;;;;;;;11.84;78.76;97670.56;10262225;28;20064;-67
2024/02/10 08:16:57;;;;;;;8.35;4.32;;;;;;;11.93;78.86;97679.88;10265508;28;20524;-67
2024/02/10 08:22:02;;;;;;;7.90;5.05;;;;;;;12.14;78.67;97672.03;10259101;28;20051;-66
2024/02/10 08:27:04;;;;;;;9.63;4.50;;;;;;;12.31;78.67;97670.06;10262900;28;20521;-66
2024/02/10 08:32:08;;;;;;;7.25;4.28;;;;;;;12.41;78.67;97680.94;10258938;28;20056;-67
2024/02/10 08:37:14;;;;;;;7.60;3.67;;;;;;;12.34;79.37;97671.44;10268134;28;20059;-67
2024/02/10 08:42:16;;;;;;;5.68;3.40;;;;;;;12.37;79.37;97665.53;10319702;23;20520;-89
2024/02/10 08:47:18;;;;;;;6.63;3.58;;;;;;;12.24;79.99;97670.28;10335686;28;20050;-89
2024/02/10 08:52:20;;;;;;;5.38;2.55;;;;;;;12.38;79.48;97657.22;10337661;28;20046;-89
2024/02/10 08:57:26;;;;;;;5.47;2.95;;;;;;;12.55;78.97;97657.09;10325949;28;20034;-89
2024/02/10 09:02:28;;;;;;;5.30;3.22;;;;;;;12.70;78.94;97645.66;10323298;28;20080;-89
2024/02/10 09:07:30;;;;;;;5.00;3.50;;;;;;;12.80;78.78;97650.31;10329029;28;20062;-88
2024/02/10 09:12:32;;;;;;;4.85;2.55;;;;;;;12.96;78.85;97648.53;10343402;28;20043;-90
2024/02/10 09:17:33;;;;;;;5.15;2.38;;;;;;;13.09;78.38;97634.59;10342971;28;20046;-90
2024/02/10 09:22:35;;;;;;;3.08;1.50;;;;;;;13.21;78.22;97635.25;10351052;28;20077;-91
2024/02/10 09:27:37;;;;;;;4.45;1.45;;;;;;;13.38;78.06;97634.28;10354785;28;20050;-90
2024/02/10 09:32:38;;;;;;;3.63;1.63;;;;;;;13.53;77.90;97625.47;10334623;23;20050;-65
2024/02/10 09:37:39;;;;;;;2.08;1.30;;;;;;;13.66;77.96;97614.16;10298114;28;20078;-65
2024/02/10 09:42:48;;;;;;;4.93;1.05;;;;;;;13.78;77.79;97611.25;10293635;28;20562;-71
2024/02/10 09:47:50;;;;;;;4.10;1.20;;;;;;;14.00;77.44;97602.94;10294490;28;20109;-61
2024/02/10 09:52:52;;;;;;;3.97;1.40;;;;;;;14.20;77.40;97604.91;10300561;28;20153;-60
2024/02/10 09:57:54;;;;;;;2.70;1.10;;;;;;;14.37;77.12;97602.75;10299508;28;20043;-61
2024/02/10 10:02:59;;;;;;;4.10;1.52;;;;;;;14.48;77.19;97590.88;10294534;28;20066;-71
2024/02/10 10:08:08;;;;;;;2.83;0.90;;;;;;;14.57;77.10;97593.06;10292990;28;20062;-71
2024/02/10 10:13:10;;;;;;;3.33;1.05;;;;;;;14.72;76.80;97595.78;10295237;28;20078;-72
2024/02/10 10:18:13;;;;;;;5.00;1.27;;;;;;;14.84;76.34;97593.59;10291370;28;20055;-72
2024/02/10 10:23:16;;;;;;;1.83;1.30;;;;;;;15.02;76.03;97604.94;10290233;28;20603;-69
2024/02/10 10:28:18;;;;;;;2.58;1.30;;;;;;;15.13;75.82;97603.84;10288712;28;20512;-71
2024/02/10 10:33:20;;;;;;;2.03;1.15;;;;;;;15.24;75.53;97597.34;10294598;28;20053;-72
2024/02/10 10:38:23;;;;;;;1.90;1.40;;;;;;;15.35;75.36;97600.81;10295579;28;20050;-69
2024/02/10 10:43:26;;;;;;;2.22;1.30;;;;;;;15.38;74.92;97605.69;10290458;28;20585;-69
2024/02/10 10:48:27;;;;;;;2.38;1.40;;;;;;;15.37;75.08;97609.47;10291621;28;20053;-71
2024/02/10 10:53:30;;;;;;;2.33;1.33;;;;;;;15.22;75.20;97595.97;10293962;28;20054;-72
2024/02/10 10:58:40;;;;;;;2.55;1.55;;;;;;;15.28;74.84;97597.56;10287287;28;20100;-72
2024/02/10 11:03:42;;;;;;;2.35;0.90;;;;;;;15.33;74.73;97591.34;10288477;28;20398;-71
2024/02/10 11:08:52;;;;;;;1.15;1.05;;;;;;;15.14;74.73;97586.50;10287859;28;20413;-61
2024/02/10 11:13:54;;;;;;;5.00;1.30;;;;;;;15.41;74.19;97585.38;10287217;28;20110;-71
2024/02/10 11:19:02;;;;;;;5.18;1.50;;;;;;;15.58;73.48;97572.31;10289868;28;20461;-68
2024/02/10 11:24:14;;;;;;;5.22;1.50;;;;;;;15.79;73.10;97569.53;10289937;28;20050;-69
2024/02/10 11:29:20;;;;;;;6.82;1.75;;;;;;;16.06;72.60;97577.25;10284306;28;21833;-65
2024/02/10 11:34:22;;;;;;;4.93;1.48;;;;;;;16.12;72.51;97569.91;10286588;28;20050;-63
2024/02/10 11:39:24;;;;;;;2.58;1.10;;;;;;;16.21;72.06;97562.78;10291021;28;20069;-63
2024/02/10 11:44:28;;;;;;;4.13;1.00;;;;;;;16.40;71.87;97549.38;10289971;28;20047;-62
2024/02/10 11:49:31;;;;;;;1.60;1.23;;;;;;;16.64;71.46;97549.44;10291009;28;20054;-62
2024/02/10 11:54:36;;;;;;;1.85;0.90;;;;;;;16.81;70.94;97533.56;10285781;28;20417;-63
2024/02/10 11:59:38;;;;;;;2.05;0.98;;;;;;;17.00;70.51;97530.13;10288594;28;20046;-64
2024/02/10 12:04:41;;;;;;;2.03;1.00;;;;;;;17.28;69.95;97530.34;10285487;28;20050;-63
2024/02/10 12:09:43;;;;;;;4.18;0.98;;;;;;;17.37;69.95;97531.34;10285916;28;20134;-64
2024/02/10 12:14:45;;;;;;;5.22;1.17;;;;;;;17.58;69.54;97523.75;10287807;28;20075;-63
2024/02/10 12:19:48;;;;;;;10.43;1.17;;;;;;;17.66;69.11;97520.41;10287993;28;20054;-71
2024/02/10 12:24:52;;;;;;;1.85;1.33;;;;;;;17.87;68.57;97518.25;10319291;28;20051;-70
2024/02/10 12:29:54;;;;;;;1.63;1.08;;;;;;;17.88;68.61;97510.91;10279297;28;20054;-71
2024/02/10 12:34:56;;;;;;;1.40;0.90;;;;;;;17.94;68.18;97504.28;10305627;28;20085;-66
2024/02/10 12:39:58;;;;;;;3.40;0.75;;;;;;;17.99;68.16;97496.03;10301960;28;20050;-69
2024/02/10 12:45:00;;;;;;;3.17;0.60;;;;;;;18.00;67.80;97494.94;10306832;28;20058;-69
2024/02/10 12:50:07;;;;;;;2.22;0.77;;;;;;;18.05;67.34;97492.16;10280911;28;20059;-69
2024/02/10 12:55:13;;;;;;;2.97;0.88;;;;;;;17.97;67.38;97490.09;10308908;28;20051;-70
2024/02/10 13:00:22;;;;;;;4.82;0.73;;;;;;;17.97;67.57;97485.47;10289712;28;20108;-72
2024/02/10 13:05:25;;;;;;;1.85;0.80;;;;;;;18.06;66.77;97476.66;10302052;28;20046;-73
2024/02/10 13:10:30;;;;;;;2.97;0.77;;;;;;;18.10;66.61;97473.03;10285684;28;20046;-72
2024/02/10 13:15:38;;;;;;;2.42;0.60;;;;;;;18.10;66.47;97466.78;10318965;28;20047;-68
2024/02/10 13:20:40;;;;;;;1.38;0.40;;;;;;;18.07;66.17;97456.50;10308268;28;20053;-67
2024/02/10 13:25:42;;;;;;;1.42;0.73;;;;;;;17.99;66.03;97452.53;10311349;28;20058;-64
2024/02/10 13:30:45;;;;;;;1.90;0.35;;;;;;;18.00;65.61;97454.97;10326715;28;20058;-62
2024/02/10 13:35:54;;;;;;;2.72;0.50;;;;;;;17.85;66.02;97449.75;10289493;28;20054;-62
2024/02/10 14:08:36;;;;;;;3.80;0.40;;;;;;;17.27;65.87;97431.03;10294433;28;20056;-62
2024/02/10 14:13:14;;;;;;;5.10;0.60;;;;;;;17.18;65.48;97428.97;10272018;28;20441;-63
2024/02/10 14:18:13;;;;;;;2.63;0.40;;;;;;;17.14;65.92;97429.81;10280319;28;20101;-65
2024/02/10 14:23:24;;;;;;;5.00;0.50;;;;;;;17.01;66.15;97428.63;10285465;28;20101;-66
2024/02/10 14:28:38;;;;;;;1.00;0.50;;;;;;;16.95;66.24;97419.75;10285273;28;20055;-63
2024/02/10 14:33:41;;;;;;;1.85;0.40;;;;;;;16.85;66.21;97417.94;10284298;28;20047;-63
2024/02/10 14:39:05;;;;;;;1.75;0.50;;;;;;;16.87;65.91;97420.38;10288571;28;20082;-63
2024/02/10 14:44:08;;;;;;;3.28;0.77;;;;;;;16.82;65.90;97423.13;10289949;28;20058;-67
2024/02/10 14:49:14;;;;;;;3.63;0.77;;;;;;;16.72;66.13;97429.47;10290871;28;20114;-66
2024/02/10 14:54:16;;;;;;;4.43;0.63;;;;;;;16.65;66.16;97437.94;10295008;28;20051;-66
2024/02/10 14:59:20;;;;;;;4.43;0.50;;;;;;;16.55;66.28;97426.41;10271956;28;20054;-66
2024/02/10 15:04:22;;;;;;;2.00;1.17;;;;;;;16.44;66.17;97428.41;10290376;28;20141;-65
2024/02/10 15:09:24;;;;;;;1.88;0.93;;;;;;;16.31;66.16;97426.34;10288842;28;20046;-65
2024/02/10 15:14:28;;;;;;;2.33;0.75;;;;;;;16.20;66.43;97425.66;10300072;28;20637;-66
2024/02/10 15:19:30;;;;;;;1.58;0.80;;;;;;;16.08;66.39;97431.44;10283703;28;20405;-65
2024/02/10 15:24:34;;;;;;;1.45;0.88;;;;;;;16.09;66.09;97432.25;10274855;28;20078;-66
2024/02/10 15:29:35;;;;;;;3.80;1.75;;;;;;;15.99;66.32;97425.00;10276665;28;20781;-66
2024/02/10 15:34:37;;;;;;;1.98;0.85;;;;;;;15.90;66.49;97410.47;10289404;28;20042;-66
2024/02/10 15:39:52;;;;;;;3.88;0.70;;;;;;;15.71;66.76;97408.41;10287541;28;20497;-65
2024/02/10 15:44:53;;;;;;;2.65;1.00;;;;;;;15.61;66.87;97411.19;10292079;28;20054;-66
2024/02/10 15:49:56;;;;;;;4.88;0.70;;;;;;;15.52;67.23;97404.75;10276187;28;20262;-66
2024/02/10 15:54:58;;;;;;;5.57;1.15;;;;;;;15.38;67.07;97404.56;10281154;28;20059;-67
2024/02/10 15:59:59;;;;;;;2.00;0.80;;;;;;;15.29;67.37;97400.84;10281413;28;20042;-66
2024/02/10 16:05:09;;;;;;;1.85;0.95;;;;;;;15.16;67.37;97394.94;10285026;28;20142;-66
2024/02/10 16:10:10;;;;;;;4.28;1.60;;;;;;;15.04;67.89;97386.34;10306202;28;20397;-65
2024/02/10 16:15:13;;;;;;;3.63;1.80;;;;;;;14.89;67.90;97384.53;10284763;28;20050;-66
2024/02/10 16:20:21;;;;;;;3.28;1.85;;;;;;;14.74;68.25;97379.97;10295920;28;20079;-66
2024/02/10 16:25:27;;;;;;;2.22;1.30;;;;;;;14.68;68.49;97379.19;10304969;28;20046;-66
2024/02/10 16:30:39;;;;;;;2.38;1.15;;;;;;;14.57;68.53;97379.50;10231891;28;20047;-66
2024/02/10 16:35:41;;;;;;;7.38;1.58;;;;;;;14.48;68.64;97369.22;10224552;28;20055;-66
2024/02/10 16:40:43;;;;;;;3.85;1.90;;;;;;;14.33;69.11;97355.75;10229746;28;20418;-65
2024/02/10 16:45:47;;;;;;;6.90;1.45;;;;;;;14.23;69.40;97369.28;10230741;28;20047;-66
2024/02/10 16:50:49;;;;;;;6.13;1.17;;;;;;;14.19;69.40;97376.31;10226311;28;20463;-67
2024/02/10 16:55:51;;;;;;;3.45;1.55;;;;;;;14.14;69.52;97379.84;10226213;28;20051;-61
2024/02/10 17:00:54;;;;;;;4.65;2.15;;;;;;;14.11;69.64;97383.09;10234108;28;20071;-67
2024/02/10 17:05:56;;;;;;;2.20;1.40;;;;;;;14.01;69.85;97375.00;10235207;28;20047;-67
2024/02/10 17:11:00;;;;;;;5.53;1.38;;;;;;;13.93;69.87;97365.56;10234607;28;20065;-64
2024/02/10 17:16:02;;;;;;;4.43;2.03;;;;;;;13.88;70.09;97368.25;10231410;28;20058;-69
2024/02/10 17:21:03;;;;;;;4.10;1.90;;;;;;;13.84;70.32;97367.16;10230335;28;20082;-69
2024/02/10 17:26:12;;;;;;;8.05;2.13;;;;;;;13.79;70.29;97357.19;10220780;28;20699;-65
2024/02/10 17:31:14;;;;;;;4.70;2.20;;;;;;;13.73;70.51;97360.97;10235630;28;20053;-68
2024/02/10 17:36:22;;;;;;;3.58;2.78;;;;;;;13.69;70.50;97366.09;10234980;28;20107;-63
2024/02/10 17:41:24;;;;;;;4.82;2.33;;;;;;;13.71;70.38;97370.44;10233568;28;20443;-66
2024/02/10 17:46:29;;;;;;;7.28;3.38;;;;;;;13.71;70.38;97367.72;10233486;28;20151;-67
2024/02/10 17:51:31;;;;;;;9.35;3.20;;;;;;;13.73;70.31;97379.06;10229937;28;20122;-68
2024/02/10 17:56:33;;;;;;;8.30;3.35;;;;;;;13.69;70.47;97386.91;10230780;28;20150;-67
2024/02/10 18:01:34;;;;;;;8.43;3.15;;;;;;;13.68;70.31;97378.00;10229614;28;20514;-67
2024/02/10 18:06:36;;;;;;;4.50;2.55;;;;;;;13.62;70.52;97392.53;10226940;28;20059;-67
2024/02/10 18:11:38;;;;;;;9.00;3.75;;;;;;;13.59;70.81;97392.28;10221113;28;20134;-61
2024/02/10 18:16:45;;;;;;;6.68;3.42;;;;;;;13.60;70.69;97394.69;10222801;28;20051;-71
2024/02/10 18:21:46;;;;;;;5.82;2.80;;;;;;;13.57;70.74;97395.25;10196065;28;20420;-61
2024/02/10 18:26:48;;;;;;;8.25;3.08;;;;;;;13.61;70.58;97387.44;10224687;28;20143;-60
2024/02/10 18:31:50;;;;;;;7.88;3.65;;;;;;;13.61;70.57;97396.34;10230515;28;20051;-63
2024/02/10 18:36:53;;;;;;;5.00;3.45;;;;;;;13.57;70.60;97395.25;10231100;28;20460;-61
2024/02/10 18:41:54;;;;;;;7.25;3.53;;;;;;;13.57;70.68;97386.34;10228168;28;20159;-62
2024/02/10 18:46:56;;;;;;;8.07;4.90;;;;;;;13.55;70.67;97369.63;10232033;28;20597;-61
2024/02/10 18:52:03;;;;;;;9.38;4.70;;;;;;;13.49;70.88;97377.69;10229591;28;20047;-62
2024/02/10 18:57:07;;;;;;;10.88;6.22;;;;;;;13.48;70.99;97380.66;10224371;28;20143;-63
2024/02/10 19:02:16;;;;;;;9.30;5.40;;;;;;;13.45;71.09;97383.91;10229759;28;20118;-63
2024/02/10 19:07:21;;;;;;;7.05;4.10;;;;;;;13.40;70.91;97381.19;10226125;28;20058;-69
2024/02/10 19:12:24;;;;;;;8.18;4.82;;;;;;;13.33;71.20;97397.66;10210343;28;20070;-70
2024/02/10 19:17:26;;;;;;;9.65;4.78;;;;;;;13.25;71.57;97409.75;10225435;28;20632;-71
2024/02/10 19:22:28;;;;;;;10.98;5.53;;;;;;;13.24;71.55;97418.91;10224136;28;20048;-61
2024/02/10 19:27:29;;;;;;;8.20;4.53;;;;;;;13.19;71.76;97407.28;10225628;28;20051;-60
2024/02/10 19:32:31;;;;;;;11.65;5.60;;;;;;;13.22;71.91;97404.06;10223521;28;20047;-59
2024/02/10 19:37:32;;;;;;;6.90;3.67;;;;;;;13.18;71.75;97395.69;10223809;28;20055;-61
2024/02/10 19:42:34;;;;;;;8.80;4.30;;;;;;;13.13;71.67;97406.47;10224518;28;20043;-61
2024/02/10 19:47:38;;;;;;;13.40;6.63;;;;;;;13.04;72.26;97403.47;10223533;28;20051;-60
2024/02/10 19:52:40;;;;;;;12.50;6.80;;;;;;;13.06;72.03;97404.00;10224948;28;20126;-67
2024/02/10 19:57:42;;;;;;;12.55;6.80;;;;;;;13.06;72.09;97414.81;10224499;28;20067;-67
2024/02/10 20:02:44;;;;;;;12.73;7.82;;;;;;;12.99;72.12;97422.31;10227521;28;20605;-64
2024/02/10 20:07:46;;;;;;;12.15;5.97;;;;;;;12.95;72.16;97417.72;10229024;28;20418;-66
2024/02/10 20:12:48;;;;;;;12.35;6.88;;;;;;;12.88;72.47;97420.69;10223586;28;20051;-67
2024/02/10 20:17:51;;;;;;;14.13;6.32;;;;;;;12.82;72.61;97414.44;10229273;28;20075;-68
2024/02/10 20:22:54;;;;;;;11.27;6.32;;;;;;;12.81;72.37;97423.59;10226525;28;20055;-64
2024/02/10 20:27:56;;;;;;;12.18;7.32;;;;;;;12.63;72.76;97430.25;10222453;28;20091;-67
2024/02/10 20:32:58;;;;;;;18.25;9.05;;;;;;;12.49;72.98;97432.59;10230180;28;20083;-60
2024/02/10 20:37:59;;;;;;;18.02;9.45;;;;;;;12.46;73.07;97427.75;10233215;28;20059;-61
2024/02/10 20:43:01;;;;;;;14.27;9.05;;;;;;;12.40;72.95;97430.66;10232976;28;20088;-62
2024/02/10 20:48:04;;;;;;;15.98;7.78;;;;;;;12.33;73.13;97438.16;10234699;28;20090;-60
2024/02/10 20:53:07;;;;;;;19.25;10.32;;;;;;;12.22;73.39;97434.56;10228851;28;20048;-60
2024/02/10 20:58:16;;;;;;;17.75;9.27;;;;;;;12.19;73.25;97435.09;10235276;28;20850;-61
2024/02/10 21:03:20;;;;;;;11.48;7.40;;;;;;;12.14;73.39;97443.94;10231063;28;20549;-61
2024/02/10 21:08:22;;;;;;;16.10;7.50;;;;;;;12.07;73.15;97452.25;10224981;28;20487;-61
2024/02/10 21:13:24;;;;;;;12.23;7.40;;;;;;;12.01;73.55;97447.88;10232798;28;20055;-60
2024/02/10 21:18:25;;;;;;;14.07;7.18;;;;;;;11.90;73.71;97446.97;10229526;28;20051;-60
2024/02/10 21:23:29;;;;;;;15.02;7.88;;;;;;;11.89;73.53;97452.66;10232692;28;20074;-62
2024/02/10 21:28:33;;;;;;;14.35;8.55;;;;;;;11.84;73.66;97445.28;10234192;28;20051;-61
2024/02/10 21:33:35;;;;;;;16.83;8.00;;;;;;;11.80;73.69;97443.38;10230771;28;20039;-63
2024/02/10 21:38:38;;;;;;;18.58;8.27;;;;;;;11.78;73.79;97442.81;10231134;28;20058;-66
2024/02/10 21:43:40;;;;;;;30.20;12.30;;;;;;;11.74;73.86;97441.72;10238804;28;20118;-66
2024/02/10 21:48:42;;;;;;;37.20;14.65;;;;;;;11.69;73.75;97439.78;10235744;28;20129;-67
2024/02/10 21:53:44;;;;;;;27.73;12.43;;;;;;;11.66;74.15;97441.09;10229834;28;20156;-66
2024/02/10 21:58:48;;;;;;;17.90;8.52;;;;;;;11.65;73.95;97441.34;10229773;28;20052;-67
2024/02/10 22:03:50;;;;;;;21.90;10.05;;;;;;;11.54;74.36;97431.56;10230543;28;20139;-66
2024/02/10 22:08:52;;;;;;;24.48;10.63;;;;;;;11.44;74.55;97434.97;10229635;28;20534;-68
2024/02/10 22:13:54;;;;;;;32.28;13.85;;;;;;;11.48;74.56;97436.88;10218373;28;20055;-68
2024/02/10 22:18:56;;;;;;;52.00;21.00;;;;;;;11.41;74.35;97425.50;10232431;28;20071;-65
2024/02/10 22:23:57;;;;;;;24.58;12.45;;;;;;;11.40;74.30;97440.03;10220016;28;20399;-67
2024/02/10 22:28:59;;;;;;;31.10;13.55;;;;;;;11.41;74.51;97438.97;10226833;28;20993;-67
2024/02/10 22:34:00;;;;;;;27.33;13.15;;;;;;;11.41;73.95;97457.78;10225534;28;20073;-71
2024/02/10 22:39:14;;;;;;;16.70;7.50;;;;;;;11.38;74.32;97470.94;10228649;28;20076;-73
2024/02/10 22:44:16;;;;;;;12.02;5.47;;;;;;;11.43;74.07;97462.91;10229542;28;20055;-72
2024/02/10 22:49:19;;;;;;;9.80;5.80;;;;;;;11.36;74.48;97454.25;10230055;28;20525;-74
2024/02/10 22:54:21;;;;;;;19.50;9.50;;;;;;;11.44;74.61;97446.53;10225260;28;20421;-70
2024/02/10 22:59:25;;;;;;;15.57;7.38;;;;;;;11.38;75.01;97431.41;10222515;28;20047;-69
2024/02/10 23:04:27;;;;;;;16.92;9.13;;;;;;;11.36;74.84;97432.75;10221458;28;20066;-70
2024/02/10 23:09:34;;;;;;;16.20;8.45;;;;;;;11.43;74.26;97431.47;10230065;28;20071;-69
2024/02/10 23:14:36;;;;;;;18.73;8.13;;;;;;;11.45;74.25;97433.88;10232196;28;20051;-69
2024/02/10 23:19:41;;;;;;;43.25;19.20;;;;;;;11.40;74.64;97441.94;10231714;28;20552;-71
2024/02/10 23:24:45;;;;;;;29.95;14.95;;;;;;;11.43;74.39;97457.53;10230577;28;20055;-69
2024/02/10 23:29:46;;;;;;;17.95;7.25;;;;;;;11.45;74.58;97453.56;10227863;28;20047;-69
2024/02/10 23:34:48;;;;;;;8.80;5.75;;;;;;;11.47;74.35;97470.25;10228942;28;20062;-70
2024/02/10 23:39:55;;;;;;;13.32;6.38;;;;;;;11.49;74.16;97459.22;10226410;28;20143;-70
2024/02/10 23:44:57;;;;;;;15.50;7.65;;;;;;;11.49;74.29;97470.81;10222340;28;20047;-70
2024/02/10 23:49:58;;;;;;;15.73;8.35;;;;;;;11.48;74.42;97468.38;10229630;28;20061;-67
2024/02/10 23:55:00;;;;;;;18.85;8.30;;;;;;;11.43;75.04;97452.16;10231264;28;20143;-67
